Latest Weather Observations for Cocos Island

IDW60801

Issued at 6:32 pm WST Saturday 13 February 2016 (issued every 30 minutes, with the page automatically refreshed every 10 minutes)

About weather observations | Map of weather stations | Latest weather observations for WA | Other Formats
Station Details ID: 200284 Name: COCOS ISLAND AIRPORT Lat: -12.19 Lon: 96.83 Height: 3.0 m
Data from the previous 72 hours. | See also: Recent months at Cocos Island
Date/Time
WST
Temp
°C
App
Temp
°C
Dew
Point
Rel
Hum
%
Delta-T
°C
Wind Press
QNH
hPa
Press
MSL
hPa
Rain
since 9 am
mm
Dir
 
Spd
km/h
Gust
km/h
Spd
kts
Gust
kts
13/06:30pm 28.8 27.5 25.1 80 2.6 NNE 41 52 22 28 1003.9 - 8.8
13/06:22pm 28.8 27.8 25.5 82 2.3 NNE 41 54 22 29 1003.8 - 8.8
13/06:00pm 28.9 26.6 24.9 79 2.8 NNE 46 57 25 31 1003.5 - 8.8
13/05:30pm 28.7 25.7 25.0 80 2.6 NNE 50 61 27 33 1003.5 - 8.8
13/05:00pm 28.7 26.4 25.0 80 2.6 NNE 46 57 25 31 1003.5 1003.4 8.8
13/04:30pm 28.5 26.7 25.1 82 2.4 N 44 61 24 33 1003.4 - 8.8
13/04:24pm 28.4 25.9 25.3 83 2.2 N 48 61 26 33 1003.3 - 8.8
13/04:11pm 28.2 27.7 25.7 86 1.8 N 39 57 21 31 1003.3 - 8.8
13/04:00pm 27.9 26.2 25.9 89 1.4 N 46 57 25 31 1003.3 - 8.8
13/03:30pm 26.9 23.8 26.1 95 0.6 NNE 54 72 29 39 1003.5 - 8.8
13/03:24pm 26.1 22.9 26.0 99 0.1 NNE 54 72 29 39 1003.7 - 7.2
13/03:22pm 27.9 24.5 25.6 87 1.6 NNE 54 65 29 35 1003.4 - 5.2
13/03:00pm 27.6 25.5 25.3 87 1.6 NNE 46 59 25 32 1003.5 - 5.2
13/02:50pm 27.0 25.5 25.7 93 0.9 NNE 44 56 24 30 1003.7 - 5.2
13/02:30pm 26.7 25.6 25.9 95 0.6 NNE 43 57 23 31 1003.8 - 4.4
13/02:19pm 26.9 26.5 25.9 94 0.7 N 39 56 21 30 1004.1 - 2.4
13/02:00pm 27.2 25.5 25.1 88 1.5 N 43 57 23 31 1004.0 1003.9 2.0
13/01:30pm 27.1 26.3 25.8 93 0.9 N 41 54 22 29 1004.4 - 2.0
13/01:09pm 28.8 29.1 24.8 79 2.8 N 32 61 17 33 1004.4 - 0.6
13/01:00pm 28.8 28.7 25.1 80 2.6 N 35 50 19 27 1004.3 - 0.6
13/12:36pm 28.8 29.8 24.8 79 2.8 N 28 46 15 25 1004.3 - 0.6
13/12:30pm 28.6 28.2 24.6 79 2.8 N 35 50 19 27 1004.4 - 0.6
13/12:00pm 28.1 26.8 25.1 84 2.1 N 41 56 22 30 1004.3 - 0.6
13/11:49am 28.0 26.5 25.3 85 1.9 N 43 61 23 33 1004.4 - 0.6
13/11:30am 26.9 25.7 25.8 94 0.8 NNE 43 52 23 28 1004.2 - 0.6
13/11:22am 26.5 25.1 25.5 94 0.7 NNE 43 50 23 27 1004.2 - 0.6
13/11:00am 25.4 24.8 25.0 98 0.3 N 37 46 20 25 1004.5 1004.4 41.6
13/10:51am 25.4 25.2 25.0 98 0.3 N 35 56 19 30 1004.8 - 38.2
13/10:48am 25.3 24.3 24.9 98 0.3 N 39 56 21 30 1004.7 - 37.4
13/10:45am 27.0 26.1 25.7 93 0.9 NNE 41 52 22 28 1004.0 - 36.8
13/10:30am 26.4 24.0 25.4 94 0.7 NNE 48 63 26 34 1003.9 - 36.8
13/10:17am 25.8 22.8 25.7 99 0.1 NNE 52 65 28 35 1003.9 - 32.8
13/10:00am 26.7 22.8 25.4 93 0.9 NNE 56 65 30 35 1003.7 - 31.4
13/09:30am 25.1 24.9 25.0 99 0.1 N 35 56 19 30 1004.0 - 25.4
13/09:26am 25.9 24.9 25.6 98 0.2 NNE 41 56 22 30 1003.8 - 21.8
13/09:18am 27.8 26.0 24.9 84 2.0 NNE 43 56 23 30 1003.3 - 20.8
13/09:00am 27.9 25.9 24.6 82 2.3 NNE 43 56 23 30 1003.0 - 20.8
13/08:54am 27.5 27.4 25.1 87 1.7 NE 35 54 19 29 1002.8 - 20.8
13/08:49am 26.9 26.9 25.3 91 1.1 NNE 35 50 19 27 1002.7 - 20.8
13/08:30am 26.6 25.0 25.5 94 0.8 NNE 44 61 24 33 1002.3 - 20.8
13/08:28am 26.9 25.6 25.0 89 1.3 NNE 41 59 22 32 1002.3 - 20.8
13/08:00am 26.4 25.4 25.5 95 0.6 NNE 41 52 22 28 1001.9 1001.8 20.8
13/07:49am 27.2 25.4 25.2 89 1.4 NNE 44 54 24 29 1001.7 - 19.6
13/07:30am 27.5 25.1 24.8 85 1.9 NNE 46 56 25 30 1001.3 - 19.6
13/07:00am 27.4 24.9 24.7 85 1.9 NNE 46 57 25 31 1001.0 - 19.6
13/06:30am 27.9 25.8 24.6 82 2.3 NNE 44 56 24 30 1000.7 - 19.6
13/06:00am 27.7 25.8 24.7 84 2.1 NNE 43 52 23 28 1000.6 - 19.6
13/05:47am 27.8 25.5 24.9 84 2.0 NNE 46 56 25 30 1000.7 - 19.6
13/05:37am 27.8 25.4 24.8 84 2.1 NNE 46 54 25 29 1000.7 - 19.6
13/05:30am 27.8 25.6 24.5 82 2.3 NNE 44 54 24 29 1000.7 - 19.6
13/05:01am 27.7 25.7 24.5 83 2.2 NNE 43 54 23 29 1000.6 - 19.6
13/05:00am 27.7 25.7 24.5 83 2.2 NNE 43 54 23 29 1000.6 1000.5 19.6
13/04:31am 27.2 26.9 24.9 87 1.6 NNE 35 44 19 24 1000.5 - 19.6
13/04:30am 27.1 26.9 25.0 88 1.5 NNE 35 44 19 24 1000.5 - 19.6
13/04:24am 26.9 26.7 25.0 89 1.3 NNE 35 41 19 22 1000.5 - 19.6
13/04:00am 26.7 27.1 25.3 92 1.0 N 33 41 18 22 1000.4 - 19.6
13/03:51am 26.8 27.7 25.2 91 1.1 N 30 44 16 24 1000.6 - 19.6
13/03:31am 26.8 27.3 25.2 91 1.1 N 32 48 17 26 1000.5 - 19.6
13/03:30am 26.8 27.6 25.7 94 0.8 N 32 41 17 22 1000.5 - 19.6
13/03:09am 26.5 26.7 25.1 92 1.0 N 33 50 18 27 1001.0 - 19.0
13/03:04am 26.4 28.0 25.1 92 0.9 N 26 50 14 27 1001.0 - 19.0
13/03:00am 26.1 28.0 25.0 94 0.8 N 24 33 13 18 1001.0 - 19.0
13/02:54am 27.2 27.5 25.2 89 1.4 NNE 33 43 18 23 1001.1 - 19.0
13/02:46am 26.9 27.5 25.6 93 0.9 NNE 33 43 18 23 1001.0 - 19.0
13/02:30am 26.6 24.9 25.3 93 0.9 NNE 44 57 24 31 1001.0 - 19.0
13/02:24am 26.5 24.2 25.5 94 0.7 NNE 48 57 26 31 1001.2 - 19.0
13/02:22am 26.7 24.7 25.4 93 0.9 NNE 46 56 25 30 1001.3 - 18.8
13/02:01am 27.3 26.3 25.0 87 1.6 NE 39 52 21 28 1001.1 - 18.8
13/02:00am 27.4 26.4 25.0 87 1.7 NE 39 52 21 28 1001.1 1001.0 18.8
13/01:56am 27.4 28.0 25.3 88 1.5 ENE 32 46 17 25 1001.0 - 18.6
13/01:31am 26.7 27.3 25.7 94 0.7 ENE 33 44 18 24 1001.6 - 18.6
13/01:30am 26.6 27.4 25.9 96 0.5 ENE 33 44 18 24 1001.5 - 18.6
13/01:20am 26.6 27.5 25.8 95 0.6 ENE 32 41 17 22 1001.6 - 18.4
13/01:06am 26.5 26.4 25.8 96 0.5 NE 37 44 20 24 1001.9 - 18.0
13/01:00am 26.8 27.2 26.0 95 0.6 ENE 35 46 19 25 1002.0 - 18.0
13/12:53am 26.7 27.1 26.0 96 0.5 E 35 46 19 25 1002.0 - 17.6
13/12:47am 26.9 27.9 25.9 94 0.7 E 32 43 17 23 1002.0 - 16.0
13/12:39am 26.6 27.9 25.8 95 0.6 E 30 39 16 21 1002.0 - 15.8
13/12:30am 26.5 26.8 25.8 96 0.5 E 35 46 19 25 1002.0 - 15.8
13/12:24am 26.4 25.7 25.4 94 0.7 E 39 57 21 31 1002.1 - 15.8
13/12:00am 26.5 26.3 25.6 95 0.6 E 37 48 20 26 1002.3 - 13.8
 
Date/Time
WST
Temp
°C
App
Temp
°C
Dew
Point
Rel
Hum
%
Delta-T
°C
Wind Press
QNH
hPa
Press
MSL
hPa
Rain
since 9 am
mm
Dir
 
Spd
km/h
Gust
km/h
Spd
kts
Gust
kts
12/11:43pm 26.5 27.0 25.5 94 0.7 E 33 46 18 25 1002.6 - 12.2
12/11:30pm 26.5 27.1 25.6 95 0.6 E 33 48 18 26 1002.5 - 12.2
12/11:04pm 26.7 27.5 25.9 95 0.6 E 33 46 18 25 1002.5 - 11.4
12/11:01pm 26.7 27.0 25.7 94 0.7 E 35 48 19 26 1002.5 - 10.8
12/11:00pm 26.7 26.9 25.6 94 0.8 E 35 48 19 26 1002.4 1002.3 10.8
12/10:50pm 26.7 25.4 25.7 94 0.7 E 43 54 23 29 1002.3 - 10.8
12/10:30pm 26.7 25.8 25.7 94 0.7 E 41 56 22 30 1002.0 - 10.6
12/10:24pm 26.3 25.8 25.7 96 0.4 E 39 43 21 23 1002.2 - 10.6
12/10:02pm 26.2 22.2 25.6 96 0.4 E 57 69 31 37 1001.9 - 6.6
12/10:01pm 26.2 22.4 25.6 96 0.4 E 56 69 30 37 1001.8 - 6.4
12/10:00pm 26.2 22.3 25.5 96 0.5 E 56 69 30 37 1001.8 - 6.2
12/09:55pm 26.7 24.7 26.0 96 0.5 E 48 67 26 36 1001.8 - 3.4
12/09:33pm 27.2 24.9 25.6 91 1.1 E 48 61 26 33 1001.5 - 0.4
12/09:30pm 27.4 25.4 25.4 89 1.4 E 46 61 25 33 1001.4 - 0.4
12/09:29pm 27.4 25.6 25.7 90 1.2 E 46 61 25 33 1001.5 - 0.4
12/09:17pm 27.9 26.1 25.2 85 1.9 E 44 65 24 35 1001.3 - 0.0
12/09:07pm 28.1 26.6 25.6 86 1.8 E 44 59 24 32 1001.3 - 0.0
12/09:00pm 28.0 26.7 25.6 87 1.7 E 43 59 23 32 1001.2 - 0.0
12/08:35pm 27.7 25.0 25.6 88 1.5 E 50 65 27 35 1001.1 - 0.0
12/08:30pm 27.8 25.8 25.4 87 1.7 E 46 65 25 35 1001.0 - 0.0
12/08:01pm 27.8 26.0 24.9 84 2.0 E 43 61 23 33 1001.0 - 0.0
12/08:00pm 27.8 25.8 24.9 84 2.0 E 44 61 24 33 1001.0 1000.9 0.0
12/07:33pm 28.0 25.6 25.4 86 1.8 E 48 67 26 36 1000.7 - 0.0
12/07:30pm 28.2 25.7 25.2 84 2.1 E 48 61 26 33 1000.6 - 0.0
12/07:00pm 28.3 27.7 25.5 85 2.0 E 39 57 21 31 1000.4 - 0.0
12/06:37pm 28.2 27.4 25.2 84 2.1 E 39 57 21 31 1000.1 - 0.0
12/06:30pm 28.2 27.5 25.4 85 2.0 E 39 52 21 28 1000.1 - 0.0
12/06:25pm 28.1 27.4 25.4 85 1.9 E 39 57 21 31 1000.0 - 0.0
12/06:24pm 28.1 27.4 25.4 85 1.9 E 39 57 21 31 999.9 - 0.0
12/06:20pm 28.1 27.0 25.4 85 1.9 E 41 57 22 31 999.8 - 0.0
12/06:04pm 28.0 27.2 25.3 85 1.9 E 39 54 21 29 999.8 - 0.0
12/06:00pm 27.9 27.3 25.6 87 1.6 E 39 54 21 29 999.8 - 0.0
12/05:55pm 27.8 27.2 25.5 87 1.6 E 39 57 21 31 999.8 - 0.0
12/05:49pm 27.6 26.5 25.9 90 1.2 E 43 59 23 32 999.9 - 0.0
12/05:31pm 27.3 26.3 25.6 90 1.2 E 41 61 22 33 1000.1 - 0.0
12/05:30pm 27.5 26.5 25.5 89 1.4 E 41 61 22 33 1000.1 - 0.0
12/05:08pm 28.3 27.7 25.0 82 2.3 E 37 56 20 30 1000.3 - 0.0
12/05:00pm 28.5 28.6 25.4 83 2.2 E 35 48 19 26 1000.3 1000.2 0.0
12/04:30pm 28.4 27.3 24.8 81 2.5 E 39 57 21 31 1000.5 - 0.0
12/04:27pm 28.4 27.6 24.7 80 2.6 E 37 57 20 31 1000.5 - 0.0
12/04:00pm 28.2 28.6 25.1 83 2.2 E 32 43 17 23 1000.8 - 0.0
12/03:30pm 27.9 27.1 24.6 82 2.3 E 37 54 20 29 1001.1 - 0.0
12/03:00pm 27.8 26.0 24.9 84 2.0 E 43 63 23 34 1001.3 - 0.0
12/02:30pm 27.9 25.9 24.6 82 2.3 ESE 43 61 23 33 1001.9 - 0.0
12/02:06pm 28.4 27.4 25.0 82 2.4 ESE 39 57 21 31 1002.4 - 0.0
12/02:00pm 28.6 27.3 25.0 81 2.5 ESE 41 52 22 28 1002.5 1002.4 0.0
12/01:32pm 29.0 27.2 24.9 78 2.9 ESE 43 61 23 33 1003.0 - 0.0
12/01:30pm 28.9 27.2 25.1 80 2.7 ESE 43 52 23 28 1003.1 - 0.0
12/01:00pm 28.8 26.7 24.4 77 3.1 ESE 43 54 23 29 1003.8 - 0.0
12/12:30pm 28.8 27.9 25.1 80 2.6 ESE 39 52 21 28 1004.5 - 0.0
12/12:00pm 28.7 28.9 25.0 80 2.6 ESE 33 46 18 25 1004.7 - 0.0
12/11:30am 28.7 27.6 24.2 76 3.1 ESE 37 56 20 30 1005.0 - 0.0
12/11:00am 28.5 27.6 24.5 79 2.8 ESE 37 54 20 29 1005.1 1005.0 32.4
12/10:49am 28.1 28.2 24.8 82 2.3 ESE 33 52 18 28 1005.3 - 32.4
12/10:44am 27.8 27.7 25.1 85 1.9 ESE 35 52 19 28 1005.4 - 32.4
12/10:30am 28.7 28.1 24.4 77 3.0 ESE 35 46 19 25 1005.4 - 32.0
12/10:00am 28.5 28.4 24.6 79 2.7 ESE 33 50 18 27 1005.4 - 32.0
12/09:57am 28.5 28.6 24.5 79 2.8 ESE 32 50 17 27 1005.4 - 32.0
12/09:30am 28.7 28.4 24.2 76 3.1 ESE 33 50 18 27 1005.0 - 32.0
12/09:00am 28.2 28.5 24.8 82 2.4 ESE 32 44 17 24 1004.8 - 32.0
12/08:30am 27.8 27.3 24.5 82 2.3 SE 35 46 19 25 1004.6 - 32.0
12/08:00am 27.4 27.3 24.5 84 2.0 ESE 33 44 18 24 1004.3 1004.2 32.0
12/07:38am 26.3 24.8 24.7 91 1.1 SE 41 56 22 30 1004.3 - 32.0
12/07:30am 26.5 24.7 24.3 88 1.5 SE 41 54 22 29 1004.2 - 32.0
12/07:17am 26.5 26.2 24.8 90 1.2 ESE 35 54 19 29 1004.2 - 31.6
12/07:00am 26.3 25.9 24.7 91 1.1 ESE 35 56 19 30 1004.2 - 30.6
12/06:54am 25.9 23.9 24.5 92 1.0 ESE 43 61 23 33 1004.3 - 30.2
12/06:53am 26.0 24.0 24.9 94 0.8 ESE 44 61 24 33 1004.3 - 30.2
12/06:44am 26.6 24.2 23.2 81 2.3 SE 41 61 22 33 1004.1 - 29.4
12/06:42am 27.8 26.5 24.5 82 2.3 SE 39 61 21 33 1003.9 - 29.2
12/06:30am 27.7 27.4 24.8 84 2.0 SE 35 48 19 26 1003.7 - 29.2
12/06:06am 27.6 28.7 24.9 85 1.9 SSE 28 39 15 21 1003.8 - 29.0
12/06:00am 27.3 28.3 24.7 86 1.8 SSE 28 37 15 20 1003.8 - 29.0
12/05:30am 26.0 28.6 24.9 94 0.8 SE 20 28 11 15 1004.0 - 26.8
12/05:14am 26.4 26.0 24.7 90 1.2 ESE 35 50 19 27 1004.2 - 21.6
12/05:00am 27.7 28.5 25.0 85 1.9 ESE 30 39 16 21 1004.0 1003.9 20.4
12/04:30am 27.6 28.7 24.9 85 1.9 ESE 28 39 15 21 1004.3 - 20.2
12/04:00am 27.7 29.4 24.7 84 2.1 E 24 33 13 18 1004.2 - 19.8
12/03:30am 27.9 28.3 23.8 78 2.8 E 28 39 15 21 1004.4 - 19.8
12/03:00am 27.9 29.4 25.0 84 2.0 E 26 39 14 21 1004.6 - 19.8
12/02:30am 27.9 28.5 24.8 83 2.2 E 30 41 16 22 1004.9 - 19.8
12/02:00am 27.8 29.0 24.5 82 2.3 E 26 35 14 19 1005.5 1005.4 19.8
12/01:46am 27.7 29.2 24.4 82 2.3 ESE 24 32 13 17 1005.8 - 19.8
12/01:30am 27.6 28.7 24.4 83 2.2 E 26 37 14 20 1006.1 - 19.8
12/01:17am 27.5 28.6 24.9 86 1.8 E 28 39 15 21 1006.2 - 19.8
12/01:00am 27.0 28.2 25.1 89 1.3 E 28 43 15 23 1006.3 - 19.8
12/12:57am 27.4 29.0 25.7 90 1.2 E 28 41 15 22 1006.4 - 19.2
12/12:30am 27.1 29.8 25.1 89 1.4 ESE 20 26 11 14 1006.5 - 18.6
12/12:00am 25.8 25.7 25.1 96 0.5 ENE 35 50 19 27 1007.0 - 16.6
 
Date/Time
WST
Temp
°C
App
Temp
°C
Dew
Point
Rel
Hum
%
Delta-T
°C
Wind Press
QNH
hPa
Press
MSL
hPa
Rain
since 9 am
mm
Dir
 
Spd
km/h
Gust
km/h
Spd
kts
Gust
kts
11/11:51pm 27.0 28.9 26.2 95 0.6 E 28 50 15 27 1007.0 - 13.2
11/11:44pm 27.2 29.3 25.3 89 1.3 E 24 39 13 21 1006.7 - 10.2
11/11:30pm 27.4 29.5 25.3 88 1.5 E 24 33 13 18 1006.3 - 9.4
11/11:09pm 27.1 28.6 26.1 94 0.7 E 30 37 16 20 1006.1 - 9.4
11/11:06pm 27.0 28.3 25.9 94 0.8 ENE 30 37 16 20 1006.0 - 9.4
11/11:00pm 27.0 28.9 26.2 95 0.6 ENE 28 35 15 19 1005.9 1005.8 9.4
11/10:48pm 26.9 27.1 26.2 96 0.5 ENE 37 43 20 23 1005.5 - 9.4
11/10:30pm 27.3 31.0 26.3 94 0.7 E 19 26 10 14 1005.5 - 7.8
11/10:22pm 27.4 31.5 26.3 94 0.8 E 17 28 9 15 1005.5 - 7.8
11/10:14pm 27.1 31.6 26.4 96 0.5 E 15 24 8 13 1005.5 - 7.8
11/10:03pm 26.9 31.6 26.1 95 0.6 SE 13 17 7 9 1005.6 - 5.4
11/10:00pm 27.2 32.0 26.2 94 0.7 SE 13 17 7 9 1005.6 - 3.4
11/09:54pm 27.6 31.8 26.0 91 1.1 SE 15 22 8 12 1005.6 - 1.2
11/09:30pm 27.8 31.3 26.0 90 1.3 SE 19 30 10 16 1005.9 - 0.8
11/09:00pm 27.9 30.3 25.2 85 1.9 ESE 22 32 12 17 1005.8 - 0.8
11/08:30pm 28.0 30.3 25.7 87 1.6 SE 24 30 13 16 1005.3 - 0.8
11/08:00pm 27.8 30.1 25.1 85 1.9 E 22 30 12 16 1005.3 1005.2 0.8
11/07:30pm 28.4 31.4 25.3 83 2.2 ESE 19 24 10 13 1005.0 - 0.8
11/07:00pm 28.1 31.8 25.8 87 1.6 ESE 17 26 9 14 1004.9 - 0.8
11/06:52pm 28.0 31.6 26.2 90 1.3 ESE 19 26 10 14 1005.0 - 0.8
11/06:33pm 28.4 31.1 26.2 88 1.6 E 24 35 13 19 1004.9 - 0.4
11/06:30pm 28.7 31.0 26.2 86 1.8 E 26 35 14 19 1004.8 - 0.2
11/06:00pm 29.6 31.6 25.1 77 3.2 E 24 32 13 17 1004.5 - 0.0
11/05:30pm 29.5 31.8 25.1 77 3.1 ESE 22 32 12 17 1004.3 - 0.0
11/05:00pm 30.3 32.4 25.4 75 3.5 E 24 32 13 17 1004.0 1003.9 0.0
11/04:30pm 30.5 32.5 25.1 73 3.8 E 24 28 13 15 1004.1 - 0.0
11/04:00pm 30.3 32.9 24.9 73 3.8 E 20 28 11 15 1004.4 - 0.0
11/03:30pm 30.1 32.9 25.3 75 3.4 E 20 28 11 15 1004.9 - 0.0
11/03:00pm 29.6 31.8 25.5 78 2.9 E 24 30 13 16 1005.3 - 0.0
11/02:30pm 29.6 32.6 25.5 78 2.9 E 20 26 11 14 1005.4 - 0.0
11/02:00pm 30.2 33.3 25.7 77 3.2 E 20 28 11 15 1005.5 1005.4 0.0
11/01:30pm 29.8 32.5 25.6 78 3.0 E 22 28 12 15 1005.8 - 0.0
11/01:00pm 29.4 31.7 25.1 77 3.0 E 22 28 12 15 1006.1 - 0.0
11/12:30pm 30.2 33.4 25.5 76 3.3 ENE 19 24 10 13 1006.2 - 0.0
11/12:00pm 29.7 31.9 25.5 78 3.0 ENE 24 30 13 16 1006.2 - 0.0
11/11:30am 29.4 31.0 25.7 80 2.6 ENE 28 33 15 18 1006.3 - 0.0
11/11:00am 28.6 30.1 25.5 83 2.2 E 28 32 15 17 1006.5 1006.4 69.6
11/10:30am 28.6 29.4 25.0 81 2.5 E 30 35 16 19 1006.9 - 69.6
11/10:00am 28.2 29.8 25.1 83 2.2 E 26 33 14 18 1006.8 - 69.6
11/09:30am 27.8 29.0 25.1 85 1.9 E 28 35 15 19 1006.7 - 69.6
11/09:00am 27.2 29.7 24.8 87 1.7 E 20 30 11 16 1006.4 - 69.6
11/08:30am 27.1 29.8 25.0 88 1.5 E 20 26 11 14 1006.1 - 69.6
11/08:00am 26.7 29.7 24.7 89 1.4 E 17 24 9 13 1006.0 1005.9 69.6
11/07:48am 26.6 30.1 24.9 90 1.2 E 15 22 8 12 1006.1 - 69.6
11/07:33am 26.3 29.9 25.0 92 0.9 ESE 15 20 8 11 1005.9 - 69.6
11/07:30am 26.3 30.3 25.0 92 0.9 ESE 13 17 7 9 1005.9 - 69.6
11/07:00am 26.3 30.2 24.3 89 1.4 SSE 11 17 6 9 1005.6 - 69.6
11/06:30am 26.5 30.6 24.0 86 1.7 SE 9 11 5 6 1005.5 - 69.6
11/06:00am 26.3 30.1 24.1 88 1.5 SE 11 15 6 8 1005.5 - 69.6
11/05:30am 26.5 28.9 23.7 84 1.9 E 17 22 9 12 1005.5 - 69.2
11/05:00am 27.0 29.7 25.0 89 1.4 E 20 24 11 13 1005.6 1005.5 69.2
11/04:30am 26.8 30.9 24.5 87 1.6 E 11 17 6 9 1005.5 - 69.2
11/04:00am 26.1 32.2 24.5 91 1.1 CALM 0 0 0 0 1005.7 - 69.2
11/03:30am 25.8 32.0 24.6 93 0.8 CALM 0 0 0 0 1005.9 - 69.2
11/03:00am 26.5 32.7 24.6 89 1.3 CALM 0 0 0 0 1006.2 - 69.2
11/02:30am 25.8 31.9 24.4 92 1.0 CALM 0 0 0 0 1006.6 - 69.2
11/02:00am 26.8 32.8 24.3 86 1.7 CALM 0 0 0 0 1006.9 1006.8 69.2
11/01:30am 26.9 32.1 24.2 85 1.9 NE 4 9 2 5 1007.2 - 69.2
11/01:00am 26.9 30.7 24.0 84 2.0 ENE 11 15 6 8 1007.6 - 69.2
11/12:30am 27.1 30.3 24.4 85 1.9 NE 15 20 8 11 1008.0 - 69.2
11/12:00am 26.8 29.9 24.2 86 1.8 NNE 15 17 8 9 1008.0 - 69.2
 
Date/Time
WST
Temp
°C
App
Temp
°C
Dew
Point
Rel
Hum
%
Delta-T
°C
Wind Press
QNH
hPa
Press
MSL
hPa
Rain
since 9 am
mm
Dir
 
Spd
km/h
Gust
km/h
Spd
kts
Gust
kts
10/11:30pm 26.6 29.4 24.9 90 1.2 NNE 19 24 10 13 1008.0 - 69.2
10/11:27pm 26.5 28.9 24.6 89 1.3 NNE 20 24 11 13 1008.0 - 69.2
10/11:16pm 26.5 28.8 24.5 89 1.4 NNE 20 28 11 15 1007.9 - 69.2
10/11:07pm 26.6 29.2 24.9 90 1.2 ENE 20 26 11 14 1007.9 - 69.2
10/11:06pm 26.5 29.1 24.9 91 1.1 ENE 20 26 11 14 1007.9 - 69.2
10/11:00pm 26.5 28.7 24.9 91 1.1 ENE 22 30 12 16 1007.9 1007.8 69.2
10/10:30pm 26.1 28.9 25.0 94 0.8 ENE 19 26 10 14 1007.8 - 69.2
10/10:00pm 25.5 27.8 24.5 94 0.7 NE 20 26 11 14 1007.7 - 69.2
10/09:39pm 25.5 28.9 24.6 95 0.6 NNE 15 20 8 11 1007.7 - 69.0
10/09:30pm 25.2 29.6 24.5 96 0.5 N 9 19 5 10 1007.7 - 69.0
10/09:00pm 25.1 28.6 24.8 98 0.2 N 15 24 8 13 1007.9 - 67.2
10/08:30pm 25.1 26.1 24.8 98 0.2 N 28 37 15 20 1007.7 - 62.0
10/08:23pm 25.1 26.9 24.8 98 0.2 N 24 37 13 20 1007.5 - 58.8

Other Formats:

Comma delimited format used in spreadsheet applications
http://www.bom.gov.au/fwo/IDW60801/IDW60801.96996.axf

JavaScript Object Notation format (JSON) in row-major order
http://www.bom.gov.au/fwo/IDW60801/IDW60801.96996.json